sensor_id;sensor_type;location;lat;lon;timestamp;temperature;humidity
25188;DHT22;13141;50.414;8.050;2023-07-13T00:00:53;20.90;93.10
25188;DHT22;13141;50.414;8.050;2023-07-13T00:03:19;21.10;94.10
25188;DHT22;13141;50.414;8.050;2023-07-13T00:05:46;20.90;93.60
25188;DHT22;13141;50.414;8.050;2023-07-13T00:08:11;20.90;93.70
25188;DHT22;13141;50.414;8.050;2023-07-13T00:10:39;20.90;93.50
25188;DHT22;13141;50.414;8.050;2023-07-13T00:13:05;20.90;93.70
25188;DHT22;13141;50.414;8.050;2023-07-13T00:15:31;20.80;93.80
25188;DHT22;13141;50.414;8.050;2023-07-13T00:17:56;20.70;93.70
25188;DHT22;13141;50.414;8.050;2023-07-13T00:20:24;20.80;93.80
25188;DHT22;13141;50.414;8.050;2023-07-13T00:22:52;20.80;94.80
25188;DHT22;13141;50.414;8.050;2023-07-13T00:25:18;20.80;94.70
25188;DHT22;13141;50.414;8.050;2023-07-13T00:27:43;20.90;94.80
25188;DHT22;13141;50.414;8.050;2023-07-13T00:30:10;20.90;94.80
25188;DHT22;13141;50.414;8.050;2023-07-13T00:32:36;20.80;94.20
25188;DHT22;13141;50.414;8.050;2023-07-13T00:35:02;20.70;94.60
25188;DHT22;13141;50.414;8.050;2023-07-13T00:37:27;20.70;94.50
25188;DHT22;13141;50.414;8.050;2023-07-13T00:39:54;20.70;94.40
25188;DHT22;13141;50.414;8.050;2023-07-13T00:42:20;20.70;95.10
25188;DHT22;13141;50.414;8.050;2023-07-13T00:45:05;20.70;95.00
25188;DHT22;13141;50.414;8.050;2023-07-13T00:47:31;20.60;95.60
25188;DHT22;13141;50.414;8.050;2023-07-13T00:49:57;20.50;95.90
25188;DHT22;13141;50.414;8.050;2023-07-13T00:52:23;20.50;96.20
25188;DHT22;13141;50.414;8.050;2023-07-13T00:54:49;20.40;95.70
25188;DHT22;13141;50.414;8.050;2023-07-13T00:57:18;20.40;95.20
25188;DHT22;13141;50.414;8.050;2023-07-13T00:59:48;20.40;96.40
25188;DHT22;13141;50.414;8.050;2023-07-13T01:02:15;20.40;95.70
25188;DHT22;13141;50.414;8.050;2023-07-13T01:04:41;20.30;95.90
25188;DHT22;13141;50.414;8.050;2023-07-13T01:07:07;20.30;95.70
25188;DHT22;13141;50.414;8.050;2023-07-13T01:09:33;20.20;95.60
25188;DHT22;13141;50.414;8.050;2023-07-13T01:11:58;20.30;96.00
25188;DHT22;13141;50.414;8.050;2023-07-13T01:14:25;20.30;96.20
25188;DHT22;13141;50.414;8.050;2023-07-13T01:16:51;20.30;96.30
25188;DHT22;13141;50.414;8.050;2023-07-13T01:19:25;20.30;96.00
25188;DHT22;13141;50.414;8.050;2023-07-13T01:21:58;20.20;96.10
25188;DHT22;13141;50.414;8.050;2023-07-13T01:24:23;20.20;95.90
25188;DHT22;13141;50.414;8.050;2023-07-13T01:26:49;20.10;95.90
25188;DHT22;13141;50.414;8.050;2023-07-13T01:29:14;19.90;95.80
25188;DHT22;13141;50.414;8.050;2023-07-13T01:31:40;19.80;96.40
25188;DHT22;13141;50.414;8.050;2023-07-13T01:34:06;19.70;96.00
25188;DHT22;13141;50.414;8.050;2023-07-13T01:36:31;19.80;96.30
25188;DHT22;13141;50.414;8.050;2023-07-13T01:38:58;19.80;95.90
25188;DHT22;13141;50.414;8.050;2023-07-13T01:41:24;19.80;96.30
25188;DHT22;13141;50.414;8.050;2023-07-13T01:43:50;19.80;96.60
25188;DHT22;13141;50.414;8.050;2023-07-13T01:46:15;19.70;96.80
25188;DHT22;13141;50.414;8.050;2023-07-13T01:48:41;19.80;96.90
25188;DHT22;13141;50.414;8.050;2023-07-13T01:51:07;19.70;97.40
25188;DHT22;13141;50.414;8.050;2023-07-13T01:53:32;19.60;97.90
25188;DHT22;13141;50.414;8.050;2023-07-13T01:55:59;19.50;97.80
25188;DHT22;13141;50.414;8.050;2023-07-13T01:58:25;19.50;98.30
25188;DHT22;13141;50.414;8.050;2023-07-13T02:00:51;19.40;97.90
25188;DHT22;13141;50.414;8.050;2023-07-13T02:03:17;19.40;98.30
25188;DHT22;13141;50.414;8.050;2023-07-13T02:05:42;19.30;98.40
25188;DHT22;13141;50.414;8.050;2023-07-13T02:08:08;19.30;98.50
25188;DHT22;13141;50.414;8.050;2023-07-13T02:10:34;19.20;98.60
25188;DHT22;13141;50.414;8.050;2023-07-13T02:13:01;19.10;98.50
25188;DHT22;13141;50.414;8.050;2023-07-13T02:15:26;19.10;98.90
25188;DHT22;13141;50.414;8.050;2023-07-13T02:17:52;19.00;98.80
25188;DHT22;13141;50.414;8.050;2023-07-13T02:20:18;19.00;98.70
25188;DHT22;13141;50.414;8.050;2023-07-13T02:22:43;19.00;99.30
25188;DHT22;13141;50.414;8.050;2023-07-13T02:25:09;18.90;99.80
25188;DHT22;13141;50.414;8.050;2023-07-13T02:27:35;18.80;99.80
25188;DHT22;13141;50.414;8.050;2023-07-13T02:30:02;18.60;99.90
25188;DHT22;13141;50.414;8.050;2023-07-13T02:32:28;18.50;99.90
25188;DHT22;13141;50.414;8.050;2023-07-13T02:34:53;18.40;99.90
25188;DHT22;13141;50.414;8.050;2023-07-13T02:37:19;18.40;99.90
25188;DHT22;13141;50.414;8.050;2023-07-13T02:39:45;18.30;99.90
25188;DHT22;13141;50.414;8.050;2023-07-13T02:42:11;18.20;99.90
25188;DHT22;13141;50.414;8.050;2023-07-13T02:44:36;18.20;99.90
25188;DHT22;13141;50.414;8.050;2023-07-13T02:47:04;18.10;99.80
25188;DHT22;13141;50.414;8.050;2023-07-13T02:49:29;18.10;99.90
25188;DHT22;13141;50.414;8.050;2023-07-13T02:51:55;18.10;99.90
25188;DHT22;13141;50.414;8.050;2023-07-13T02:54:21;18.20;99.90
25188;DHT22;13141;50.414;8.050;2023-07-13T02:56:46;18.00;99.90
25188;DHT22;13141;50.414;8.050;2023-07-13T02:59:12;18.00;99.90
25188;DHT22;13141;50.414;8.050;2023-07-13T03:01:37;18.00;99.90
25188;DHT22;13141;50.414;8.050;2023-07-13T03:04:05;17.90;99.90
25188;DHT22;13141;50.414;8.050;2023-07-13T03:06:31;17.80;99.90
25188;DHT22;13141;50.414;8.050;2023-07-13T03:08:57;17.70;99.90
25188;DHT22;13141;50.414;8.050;2023-07-13T03:11:22;17.70;99.90
25188;DHT22;13141;50.414;8.050;2023-07-13T03:13:48;17.50;99.90
25188;DHT22;13141;50.414;8.050;2023-07-13T03:16:15;17.40;99.90
25188;DHT22;13141;50.414;8.050;2023-07-13T03:18:41;17.50;99.90
25188;DHT22;13141;50.414;8.050;2023-07-13T03:21:09;17.50;99.90
25188;DHT22;13141;50.414;8.050;2023-07-13T03:23:35;17.50;99.90
25188;DHT22;13141;50.414;8.050;2023-07-13T03:26:06;17.60;99.90
25188;DHT22;13141;50.414;8.050;2023-07-13T03:28:32;17.50;99.90
25188;DHT22;13141;50.414;8.050;2023-07-13T03:31:02;17.40;99.90
25188;DHT22;13141;50.414;8.050;2023-07-13T03:33:28;17.30;99.90
25188;DHT22;13141;50.414;8.050;2023-07-13T03:35:54;17.30;99.90
25188;DHT22;13141;50.414;8.050;2023-07-13T03:38:20;17.30;99.90
25188;DHT22;13141;50.414;8.050;2023-07-13T03:40:46;17.20;99.90
25188;DHT22;13141;50.414;8.050;2023-07-13T03:43:12;17.20;99.90
25188;DHT22;13141;50.414;8.050;2023-07-13T03:45:38;17.20;99.90
25188;DHT22;13141;50.414;8.050;2023-07-13T03:48:04;17.10;99.90
25188;DHT22;13141;50.414;8.050;2023-07-13T03:50:29;17.00;99.90
25188;DHT22;13141;50.414;8.050;2023-07-13T03:52:55;17.00;99.90
25188;DHT22;13141;50.414;8.050;2023-07-13T03:55:22;17.00;99.90
25188;DHT22;13141;50.414;8.050;2023-07-13T03:57:52;17.00;99.90
25188;DHT22;13141;50.414;8.050;2023-07-13T04:00:18;17.00;99.90
25188;DHT22;13141;50.414;8.050;2023-07-13T04:02:44;17.00;99.90
25188;DHT22;13141;50.414;8.050;2023-07-13T04:05:09;17.00;99.90
25188;DHT22;13141;50.414;8.050;2023-07-13T04:07:35;17.10;99.90
25188;DHT22;13141;50.414;8.050;2023-07-13T04:10:01;17.00;99.90
25188;DHT22;13141;50.414;8.050;2023-07-13T04:12:28;17.00;99.90
25188;DHT22;13141;50.414;8.050;2023-07-13T04:14:53;17.00;99.90
25188;DHT22;13141;50.414;8.050;2023-07-13T04:17:19;17.00;99.90
25188;DHT22;13141;50.414;8.050;2023-07-13T04:19:44;17.00;99.90
25188;DHT22;13141;50.414;8.050;2023-07-13T04:22:10;16.90;99.90
25188;DHT22;13141;50.414;8.050;2023-07-13T04:24:36;16.90;99.90
25188;DHT22;13141;50.414;8.050;2023-07-13T04:27:01;16.80;99.90
25188;DHT22;13141;50.414;8.050;2023-07-13T04:29:29;16.80;99.90
25188;DHT22;13141;50.414;8.050;2023-07-13T04:31:54;16.80;99.90
25188;DHT22;13141;50.414;8.050;2023-07-13T04:34:20;16.80;99.90
25188;DHT22;13141;50.414;8.050;2023-07-13T04:36:46;16.80;99.90
25188;DHT22;13141;50.414;8.050;2023-07-13T04:39:11;16.70;99.90
25188;DHT22;13141;50.414;8.050;2023-07-13T04:41:37;16.80;99.90
25188;DHT22;13141;50.414;8.050;2023-07-13T04:44:03;16.80;99.90
25188;DHT22;13141;50.414;8.050;2023-07-13T04:46:30;16.80;99.90
25188;DHT22;13141;50.414;8.050;2023-07-13T04:48:56;16.80;99.90
25188;DHT22;13141;50.414;8.050;2023-07-13T04:51:21;16.80;99.90
25188;DHT22;13141;50.414;8.050;2023-07-13T04:53:47;16.80;99.90
25188;DHT22;13141;50.414;8.050;2023-07-13T04:56:13;16.70;99.90
25188;DHT22;13141;50.414;8.050;2023-07-13T04:58:38;16.60;99.90
25188;DHT22;13141;50.414;8.050;2023-07-13T05:01:05;16.60;99.90
25188;DHT22;13141;50.414;8.050;2023-07-13T05:03:32;16.70;99.90
25188;DHT22;13141;50.414;8.050;2023-07-13T05:05:59;16.80;99.90
25188;DHT22;13141;50.414;8.050;2023-07-13T05:08:26;16.80;99.90
25188;DHT22;13141;50.414;8.050;2023-07-13T05:10:52;16.90;99.90
25188;DHT22;13141;50.414;8.050;2023-07-13T05:13:18;16.90;99.90
25188;DHT22;13141;50.414;8.050;2023-07-13T05:15:44;17.00;99.90
25188;DHT22;13141;50.414;8.050;2023-07-13T05:18:10;17.00;99.90
25188;DHT22;13141;50.414;8.050;2023-07-13T05:20:37;17.10;99.90
25188;DHT22;13141;50.414;8.050;2023-07-13T05:23:03;17.10;99.90
25188;DHT22;13141;50.414;8.050;2023-07-13T05:25:29;17.10;99.90
25188;DHT22;13141;50.414;8.050;2023-07-13T05:27:55;17.10;99.90
25188;DHT22;13141;50.414;8.050;2023-07-13T05:30:20;17.20;99.90
25188;DHT22;13141;50.414;8.050;2023-07-13T05:32:46;17.30;99.90
25188;DHT22;13141;50.414;8.050;2023-07-13T05:35:12;17.30;99.90
25188;DHT22;13141;50.414;8.050;2023-07-13T05:37:39;17.40;99.90
25188;DHT22;13141;50.414;8.050;2023-07-13T05:40:05;17.70;99.90
25188;DHT22;13141;50.414;8.050;2023-07-13T05:42:31;17.50;99.90
25188;DHT22;13141;50.414;8.050;2023-07-13T05:44:58;17.50;99.90
25188;DHT22;13141;50.414;8.050;2023-07-13T05:47:23;17.60;99.90
25188;DHT22;13141;50.414;8.050;2023-07-13T05:49:49;17.70;99.90
25188;DHT22;13141;50.414;8.050;2023-07-13T05:52:14;17.70;99.90
25188;DHT22;13141;50.414;8.050;2023-07-13T05:54:42;17.70;99.90
25188;DHT22;13141;50.414;8.050;2023-07-13T05:57:07;17.70;99.90
25188;DHT22;13141;50.414;8.050;2023-07-13T05:59:33;17.70;99.90
25188;DHT22;13141;50.414;8.050;2023-07-13T06:01:59;17.70;99.90
25188;DHT22;13141;50.414;8.050;2023-07-13T06:04:25;17.70;99.90
25188;DHT22;13141;50.414;8.050;2023-07-13T06:06:50;17.70;99.90
25188;DHT22;13141;50.414;8.050;2023-07-13T06:09:16;17.80;99.90
25188;DHT22;13141;50.414;8.050;2023-07-13T06:11:43;17.80;99.90
25188;DHT22;13141;50.414;8.050;2023-07-13T06:14:09;17.90;99.90
25188;DHT22;13141;50.414;8.050;2023-07-13T06:16:35;18.00;99.90
25188;DHT22;13141;50.414;8.050;2023-07-13T06:19:00;18.10;99.90
25188;DHT22;13141;50.414;8.050;2023-07-13T06:21:26;18.20;99.90
25188;DHT22;13141;50.414;8.050;2023-07-13T06:23:52;18.20;99.90
25188;DHT22;13141;50.414;8.050;2023-07-13T06:26:19;18.30;99.90
25188;DHT22;13141;50.414;8.050;2023-07-13T06:28:46;18.30;99.90
25188;DHT22;13141;50.414;8.050;2023-07-13T06:31:13;18.40;99.90
25188;DHT22;13141;50.414;8.050;2023-07-13T06:33:40;18.40;99.90
25188;DHT22;13141;50.414;8.050;2023-07-13T06:36:07;18.40;99.90
25188;DHT22;13141;50.414;8.050;2023-07-13T06:38:33;18.50;99.90
25188;DHT22;13141;50.414;8.050;2023-07-13T06:40:58;18.50;99.90
25188;DHT22;13141;50.414;8.050;2023-07-13T06:43:24;18.60;99.90
25188;DHT22;13141;50.414;8.050;2023-07-13T06:45:54;18.70;99.90
25188;DHT22;13141;50.414;8.050;2023-07-13T06:48:20;18.80;99.90
25188;DHT22;13141;50.414;8.050;2023-07-13T06:50:49;18.80;99.90
25188;DHT22;13141;50.414;8.050;2023-07-13T06:53:15;19.00;99.90
25188;DHT22;13141;50.414;8.050;2023-07-13T06:55:44;19.10;99.90
25188;DHT22;13141;50.414;8.050;2023-07-13T06:58:09;19.20;99.90
25188;DHT22;13141;50.414;8.050;2023-07-13T07:00:35;19.40;99.90
25188;DHT22;13141;50.414;8.050;2023-07-13T07:03:02;19.10;99.90
25188;DHT22;13141;50.414;8.050;2023-07-13T07:05:28;19.50;99.90
25188;DHT22;13141;50.414;8.050;2023-07-13T07:07:55;19.50;99.80
25188;DHT22;13141;50.414;8.050;2023-07-13T07:10:21;19.60;99.90
25188;DHT22;13141;50.414;8.050;2023-07-13T07:12:50;19.70;99.10
25188;DHT22;13141;50.414;8.050;2023-07-13T07:15:16;19.70;99.30
25188;DHT22;13141;50.414;8.050;2023-07-13T07:17:42;19.90;99.90
25188;DHT22;13141;50.414;8.050;2023-07-13T07:20:10;20.00;99.40
25188;DHT22;13141;50.414;8.050;2023-07-13T07:22:36;20.10;98.40
25188;DHT22;13141;50.414;8.050;2023-07-13T07:25:02;20.40;98.60
25188;DHT22;13141;50.414;8.050;2023-07-13T07:27:28;20.60;98.50
25188;DHT22;13141;50.414;8.050;2023-07-13T07:29:55;20.90;98.40
25188;DHT22;13141;50.414;8.050;2023-07-13T07:32:21;21.10;97.30
25188;DHT22;13141;50.414;8.050;2023-07-13T07:34:46;21.40;97.00
25188;DHT22;13141;50.414;8.050;2023-07-13T07:37:14;21.50;96.70
25188;DHT22;13141;50.414;8.050;2023-07-13T07:39:40;21.60;95.70
25188;DHT22;13141;50.414;8.050;2023-07-13T07:42:09;21.70;95.90
25188;DHT22;13141;50.414;8.050;2023-07-13T07:44:34;21.80;95.70
25188;DHT22;13141;50.414;8.050;2023-07-13T07:47:00;21.80;95.00
25188;DHT22;13141;50.414;8.050;2023-07-13T07:49:26;21.80;95.40
25188;DHT22;13141;50.414;8.050;2023-07-13T07:51:52;22.00;95.00
25188;DHT22;13141;50.414;8.050;2023-07-13T07:54:19;22.10;94.50
25188;DHT22;13141;50.414;8.050;2023-07-13T07:56:45;22.00;94.40
25188;DHT22;13141;50.414;8.050;2023-07-13T07:59:11;21.90;94.50
25188;DHT22;13141;50.414;8.050;2023-07-13T08:01:36;21.70;94.10
25188;DHT22;13141;50.414;8.050;2023-07-13T08:04:02;21.50;94.00
25188;DHT22;13141;50.414;8.050;2023-07-13T08:06:28;21.40;94.50
25188;DHT22;13141;50.414;8.050;2023-07-13T08:08:55;21.50;94.30
25188;DHT22;13141;50.414;8.050;2023-07-13T08:11:22;21.60;93.90
25188;DHT22;13141;50.414;8.050;2023-07-13T08:13:49;21.90;93.40
25188;DHT22;13141;50.414;8.050;2023-07-13T08:16:15;22.20;93.60
25188;DHT22;13141;50.414;8.050;2023-07-13T08:18:40;22.30;93.20
25188;DHT22;13141;50.414;8.050;2023-07-13T08:21:07;22.60;93.40
25188;DHT22;13141;50.414;8.050;2023-07-13T08:23:35;22.80;93.20
25188;DHT22;13141;50.414;8.050;2023-07-13T08:26:01;23.00;91.80
25188;DHT22;13141;50.414;8.050;2023-07-13T08:28:28;23.10;91.70
25188;DHT22;13141;50.414;8.050;2023-07-13T08:30:55;23.30;91.50
25188;DHT22;13141;50.414;8.050;2023-07-13T08:33:22;23.60;91.80
25188;DHT22;13141;50.414;8.050;2023-07-13T08:35:47;23.80;91.90
25188;DHT22;13141;50.414;8.050;2023-07-13T08:38:13;24.00;91.10
25188;DHT22;13141;50.414;8.050;2023-07-13T08:40:39;24.20;92.00
25188;DHT22;13141;50.414;8.050;2023-07-13T08:43:11;24.40;90.80
25188;DHT22;13141;50.414;8.050;2023-07-13T08:45:43;24.60;90.60
25188;DHT22;13141;50.414;8.050;2023-07-13T08:48:13;24.50;88.30
25188;DHT22;13141;50.414;8.050;2023-07-13T08:50:49;24.30;89.90
25188;DHT22;13141;50.414;8.050;2023-07-13T08:53:17;24.30;88.10
25188;DHT22;13141;50.414;8.050;2023-07-13T08:55:44;24.50;89.00
25188;DHT22;13141;50.414;8.050;2023-07-13T08:58:12;24.70;87.80
25188;DHT22;13141;50.414;8.050;2023-07-13T09:00:45;24.80;86.50
25188;DHT22;13141;50.414;8.050;2023-07-13T09:03:20;25.00;87.10
25188;DHT22;13141;50.414;8.050;2023-07-13T09:05:50;25.10;85.00
25188;DHT22;13141;50.414;8.050;2023-07-13T09:08:37;25.30;85.50
25188;DHT22;13141;50.414;8.050;2023-07-13T09:11:13;25.10;83.70
25188;DHT22;13141;50.414;8.050;2023-07-13T09:13:45;25.20;84.20
25188;DHT22;13141;50.414;8.050;2023-07-13T09:16:15;25.40;84.80
25188;DHT22;13141;50.414;8.050;2023-07-13T09:18:45;25.10;82.80
25188;DHT22;13141;50.414;8.050;2023-07-13T09:21:15;25.10;83.70
25188;DHT22;13141;50.414;8.050;2023-07-13T09:23:42;25.20;83.40
25188;DHT22;13141;50.414;8.050;2023-07-13T09:26:13;25.20;83.70
25188;DHT22;13141;50.414;8.050;2023-07-13T09:28:42;25.30;84.70
25188;DHT22;13141;50.414;8.050;2023-07-13T09:31:13;25.20;82.80
25188;DHT22;13141;50.414;8.050;2023-07-13T09:33:40;25.20;84.60
25188;DHT22;13141;50.414;8.050;2023-07-13T09:36:20;25.60;82.90
25188;DHT22;13141;50.414;8.050;2023-07-13T09:38:47;25.90;84.80
25188;DHT22;13141;50.414;8.050;2023-07-13T09:41:19;26.10;82.40
25188;DHT22;13141;50.414;8.050;2023-07-13T09:44:07;26.20;79.80
25188;DHT22;13141;50.414;8.050;2023-07-13T09:46:33;26.40;78.70
25188;DHT22;13141;50.414;8.050;2023-07-13T09:49:00;26.20;78.70
25188;DHT22;13141;50.414;8.050;2023-07-13T09:51:26;26.20;79.50
25188;DHT22;13141;50.414;8.050;2023-07-13T09:53:51;25.80;79.40
25188;DHT22;13141;50.414;8.050;2023-07-13T09:56:21;25.50;80.40
25188;DHT22;13141;50.414;8.050;2023-07-13T09:58:47;25.40;80.40
25188;DHT22;13141;50.414;8.050;2023-07-13T10:01:13;25.80;79.80
25188;DHT22;13141;50.414;8.050;2023-07-13T10:03:39;26.10;77.90
25188;DHT22;13141;50.414;8.050;2023-07-13T10:06:13;26.20;78.10
25188;DHT22;13141;50.414;8.050;2023-07-13T10:08:39;26.30;76.80
25188;DHT22;13141;50.414;8.050;2023-07-13T10:11:10;26.10;76.10
25188;DHT22;13141;50.414;8.050;2023-07-13T10:13:37;26.60;78.30
25188;DHT22;13141;50.414;8.050;2023-07-13T10:16:06;26.50;76.00
25188;DHT22;13141;50.414;8.050;2023-07-13T10:18:39;27.00;76.60
25188;DHT22;13141;50.414;8.050;2023-07-13T10:21:15;27.60;71.40
25188;DHT22;13141;50.414;8.050;2023-07-13T10:23:41;27.90;68.30
25188;DHT22;13141;50.414;8.050;2023-07-13T10:26:15;28.10;71.00
25188;DHT22;13141;50.414;8.050;2023-07-13T10:28:42;27.80;69.10
25188;DHT22;13141;50.414;8.050;2023-07-13T10:31:13;27.40;67.20
25188;DHT22;13141;50.414;8.050;2023-07-13T10:33:40;27.80;68.80
25188;DHT22;13141;50.414;8.050;2023-07-13T10:36:22;28.30;69.10
25188;DHT22;13141;50.414;8.050;2023-07-13T10:38:50;28.70;67.70
25188;DHT22;13141;50.414;8.050;2023-07-13T10:41:19;28.30;65.60
25188;DHT22;13141;50.414;8.050;2023-07-13T10:43:48;27.90;64.40
25188;DHT22;13141;50.414;8.050;2023-07-13T10:46:17;28.00;67.00
25188;DHT22;13141;50.414;8.050;2023-07-13T10:48:46;28.00;66.50
25188;DHT22;13141;50.414;8.050;2023-07-13T10:51:19;28.00;64.90
25188;DHT22;13141;50.414;8.050;2023-07-13T10:53:45;27.90;63.70
25188;DHT22;13141;50.414;8.050;2023-07-13T10:56:22;27.60;63.70
25188;DHT22;13141;50.414;8.050;2023-07-13T10:59:01;27.50;64.20
25188;DHT22;13141;50.414;8.050;2023-07-13T11:01:39;27.60;65.80
25188;DHT22;13141;50.414;8.050;2023-07-13T11:04:11;27.60;66.50
25188;DHT22;13141;50.414;8.050;2023-07-13T11:06:40;27.50;62.80
25188;DHT22;13141;50.414;8.050;2023-07-13T11:09:34;27.20;62.70
25188;DHT22;13141;50.414;8.050;2023-07-13T11:12:00;27.40;61.30
25188;DHT22;13141;50.414;8.050;2023-07-13T11:14:30;27.70;59.60
25188;DHT22;13141;50.414;8.050;2023-07-13T11:16:56;27.50;60.80
25188;DHT22;13141;50.414;8.050;2023-07-13T11:19:40;27.20;59.60
25188;DHT22;13141;50.414;8.050;2023-07-13T11:22:16;26.90;60.10
25188;DHT22;13141;50.414;8.050;2023-07-13T11:25:00;26.50;59.30
25188;DHT22;13141;50.414;8.050;2023-07-13T11:27:38;26.40;60.80
25188;DHT22;13141;50.414;8.050;2023-07-13T11:33:04;26.20;60.50
25188;DHT22;13141;50.414;8.050;2023-07-13T11:35:31;26.30;61.90
25188;DHT22;13141;50.414;8.050;2023-07-13T11:37:59;26.30;60.10
25188;DHT22;13141;50.414;8.050;2023-07-13T11:40:27;26.00;59.70
25188;DHT22;13141;50.414;8.050;2023-07-13T11:42:59;25.80;59.90
25188;DHT22;13141;50.414;8.050;2023-07-13T11:45:25;26.30;59.80
25188;DHT22;13141;50.414;8.050;2023-07-13T11:47:50;26.20;59.10
25188;DHT22;13141;50.414;8.050;2023-07-13T11:50:19;26.10;60.40
25188;DHT22;13141;50.414;8.050;2023-07-13T11:52:45;26.10;59.50
25188;DHT22;13141;50.414;8.050;2023-07-13T11:55:17;25.80;59.50
25188;DHT22;13141;50.414;8.050;2023-07-13T11:57:47;26.00;59.70
25188;DHT22;13141;50.414;8.050;2023-07-13T12:00:16;26.80;62.30
25188;DHT22;13141;50.414;8.050;2023-07-13T12:02:44;27.00;59.90
25188;DHT22;13141;50.414;8.050;2023-07-13T12:05:13;27.00;60.20
25188;DHT22;13141;50.414;8.050;2023-07-13T12:07:40;27.00;60.00
25188;DHT22;13141;50.414;8.050;2023-07-13T12:10:19;27.00;61.50
25188;DHT22;13141;50.414;8.050;2023-07-13T12:12:48;27.00;60.20
25188;DHT22;13141;50.414;8.050;2023-07-13T12:15:14;26.90;59.80
25188;DHT22;13141;50.414;8.050;2023-07-13T12:17:41;26.70;60.00
25188;DHT22;13141;50.414;8.050;2023-07-13T12:20:20;26.50;59.80
25188;DHT22;13141;50.414;8.050;2023-07-13T12:22:46;26.50;59.80
25188;DHT22;13141;50.414;8.050;2023-07-13T12:25:13;26.50;59.70
25188;DHT22;13141;50.414;8.050;2023-07-13T12:27:40;26.40;60.00
25188;DHT22;13141;50.414;8.050;2023-07-13T12:30:26;26.40;60.30
25188;DHT22;13141;50.414;8.050;2023-07-13T12:32:59;26.40;59.60
25188;DHT22;13141;50.414;8.050;2023-07-13T12:35:28;26.40;60.30
25188;DHT22;13141;50.414;8.050;2023-07-13T12:37:56;26.30;60.80
25188;DHT22;13141;50.414;8.050;2023-07-13T12:40:27;26.20;61.40
25188;DHT22;13141;50.414;8.050;2023-07-13T12:42:55;26.30;61.80
25188;DHT22;13141;50.414;8.050;2023-07-13T12:45:24;26.20;61.40
25188;DHT22;13141;50.414;8.050;2023-07-13T12:47:53;26.10;60.70
25188;DHT22;13141;50.414;8.050;2023-07-13T12:50:29;26.00;61.30
25188;DHT22;13141;50.414;8.050;2023-07-13T12:53:01;26.10;59.80
25188;DHT22;13141;50.414;8.050;2023-07-13T12:55:27;26.00;61.40
25188;DHT22;13141;50.414;8.050;2023-07-13T12:57:57;26.10;60.20
25188;DHT22;13141;50.414;8.050;2023-07-13T13:00:25;26.00;60.60
25188;DHT22;13141;50.414;8.050;2023-07-13T13:02:53;25.90;60.80
25188;DHT22;13141;50.414;8.050;2023-07-13T13:05:19;25.80;61.60
25188;DHT22;13141;50.414;8.050;2023-07-13T13:07:45;25.70;61.30
25188;DHT22;13141;50.414;8.050;2023-07-13T13:10:12;25.70;61.40
25188;DHT22;13141;50.414;8.050;2023-07-13T13:12:37;25.70;63.20
25188;DHT22;13141;50.414;8.050;2023-07-13T13:15:05;25.70;63.30
25188;DHT22;13141;50.414;8.050;2023-07-13T13:17:31;25.60;62.60
25188;DHT22;13141;50.414;8.050;2023-07-13T13:19:57;25.50;62.30
25188;DHT22;13141;50.414;8.050;2023-07-13T13:22:22;25.50;60.90
25188;DHT22;13141;50.414;8.050;2023-07-13T13:24:48;25.50;60.20
25188;DHT22;13141;50.414;8.050;2023-07-13T13:27:16;25.60;60.60
25188;DHT22;13141;50.414;8.050;2023-07-13T13:29:42;25.60;60.60
25188;DHT22;13141;50.414;8.050;2023-07-13T13:32:12;25.70;60.40
25188;DHT22;13141;50.414;8.050;2023-07-13T13:34:38;25.40;59.90
25188;DHT22;13141;50.414;8.050;2023-07-13T13:37:14;25.30;60.40
25188;DHT22;13141;50.414;8.050;2023-07-13T13:39:43;25.20;60.50
25188;DHT22;13141;50.414;8.050;2023-07-13T13:42:09;25.00;62.10
25188;DHT22;13141;50.414;8.050;2023-07-13T13:44:35;25.10;62.20
25188;DHT22;13141;50.414;8.050;2023-07-13T13:47:01;25.20;63.10
25188;DHT22;13141;50.414;8.050;2023-07-13T13:49:30;25.30;63.30
25188;DHT22;13141;50.414;8.050;2023-07-13T13:51:56;25.40;63.40
25188;DHT22;13141;50.414;8.050;2023-07-13T13:54:23;25.40;63.60
25188;DHT22;13141;50.414;8.050;2023-07-13T13:56:50;25.40;63.40
25188;DHT22;13141;50.414;8.050;2023-07-13T13:59:18;25.60;63.40
25188;DHT22;13141;50.414;8.050;2023-07-13T14:01:46;25.70;64.20
25188;DHT22;13141;50.414;8.050;2023-07-13T14:04:16;25.80;63.70
25188;DHT22;13141;50.414;8.050;2023-07-13T14:06:43;25.90;63.50
25188;DHT22;13141;50.414;8.050;2023-07-13T14:09:11;26.00;62.60
25188;DHT22;13141;50.414;8.050;2023-07-13T14:11:37;25.80;63.10
25188;DHT22;13141;50.414;8.050;2023-07-13T14:14:03;25.80;63.10
25188;DHT22;13141;50.414;8.050;2023-07-13T14:16:30;25.70;62.30
25188;DHT22;13141;50.414;8.050;2023-07-13T14:18:56;25.80;64.10
25188;DHT22;13141;50.414;8.050;2023-07-13T14:21:22;25.90;62.60
25188;DHT22;13141;50.414;8.050;2023-07-13T14:23:49;25.90;62.20
25188;DHT22;13141;50.414;8.050;2023-07-13T14:26:17;25.90;63.00
25188;DHT22;13141;50.414;8.050;2023-07-13T14:28:45;25.90;63.30
25188;DHT22;13141;50.414;8.050;2023-07-13T14:31:13;25.90;62.10
25188;DHT22;13141;50.414;8.050;2023-07-13T14:33:39;25.90;62.50
25188;DHT22;13141;50.414;8.050;2023-07-13T14:36:26;25.90;62.40
25188;DHT22;13141;50.414;8.050;2023-07-13T14:38:55;26.00;62.10
25188;DHT22;13141;50.414;8.050;2023-07-13T14:41:21;26.10;62.80
25188;DHT22;13141;50.414;8.050;2023-07-13T14:43:46;26.30;62.60
25188;DHT22;13141;50.414;8.050;2023-07-13T14:46:22;26.40;61.30
25188;DHT22;13141;50.414;8.050;2023-07-13T14:48:49;26.40;61.90
25188;DHT22;13141;50.414;8.050;2023-07-13T14:51:15;26.50;60.40
25188;DHT22;13141;50.414;8.050;2023-07-13T14:53:41;26.90;62.50
25188;DHT22;13141;50.414;8.050;2023-07-13T14:56:11;27.20;62.30
25188;DHT22;13141;50.414;8.050;2023-07-13T14:58:38;27.40;59.30
25188;DHT22;13141;50.414;8.050;2023-07-13T15:01:04;27.40;61.40
25188;DHT22;13141;50.414;8.050;2023-07-13T15:03:29;27.10;59.40
25188;DHT22;13141;50.414;8.050;2023-07-13T15:05:55;27.40;60.60
25188;DHT22;13141;50.414;8.050;2023-07-13T15:08:20;27.10;60.50
25188;DHT22;13141;50.414;8.050;2023-07-13T15:10:46;26.80;59.40
25188;DHT22;13141;50.414;8.050;2023-07-13T15:13:17;26.70;59.60
25188;DHT22;13141;50.414;8.050;2023-07-13T15:15:46;26.70;59.60
25188;DHT22;13141;50.414;8.050;2023-07-13T15:18:13;26.70;59.50
25188;DHT22;13141;50.414;8.050;2023-07-13T15:20:40;26.70;59.60
25188;DHT22;13141;50.414;8.050;2023-07-13T15:23:06;26.70;59.70
25188;DHT22;13141;50.414;8.050;2023-07-13T15:25:33;26.50;58.60
25188;DHT22;13141;50.414;8.050;2023-07-13T15:27:59;26.60;59.60
25188;DHT22;13141;50.414;8.050;2023-07-13T15:30:29;26.40;59.50
25188;DHT22;13141;50.414;8.050;2023-07-13T15:32:56;26.50;59.20
25188;DHT22;13141;50.414;8.050;2023-07-13T15:35:25;26.60;59.40